Time;durP1;ratioP1;P1;durP2;ratioP2;P2;SDS_P1;SDS_P2;PMS_P1;PMS_P2;Temp;Humidity;BMP_temperature;BMP_pressure;BME280_temperature;BME280_humidity;BME280_pressure;Samples;Min_cycle;Max_cycle;Signal;HPM_P1;HPM_P2
2022/05/03 00:00:08;;;;;;;;;;;;;;;14.45;59.99;99562.88;4430318;32;19997;-93
2022/05/03 00:02:52;;;;;;;;;;;;;;;14.50;60.00;99566.94;4430458;32;20056;-92
2022/05/03 00:05:29;;;;;;;;;;;;;;;14.44;59.99;99567.28;4442803;32;19991;-93
2022/05/03 00:08:01;;;;;;;;;;;;;;;14.48;60.00;99565.34;4442254;32;20067;-93
2022/05/03 00:10:46;;;;;;;;;;;;;;;14.47;60.00;99561.88;4442449;32;20057;-92
2022/05/03 00:13:12;;;;;;;;;;;;;;;14.60;60.00;99562.06;4416391;32;19992;-90
2022/05/03 00:15:39;;;;;;;;;;;;;;;14.58;60.00;99563.94;4428673;32;20041;-90
2022/05/03 00:18:04;;;;;;;;;;;;;;;14.55;60.00;99564.09;4429133;32;20306;-90
2022/05/03 00:20:29;;;;;;;;;;;;;;;14.58;60.00;99558.69;4429333;32;20025;-92
2022/05/03 00:22:55;;;;;;;;;;;;;;;14.43;59.99;99569.03;4428976;32;21456;-90
2022/05/03 00:25:20;;;;;;;;;;;;;;;14.35;59.99;99567.69;4429117;32;19995;-91
2022/05/03 00:27:52;;;;;;;;;;;;;;;14.35;59.99;99558.06;4426339;32;19977;-90
2022/05/03 00:30:20;;;;;;;;;;;;;;;14.40;59.99;99555.19;4427067;32;19997;-92
2022/05/03 00:32:46;;;;;;;;;;;;;;;14.33;59.99;99551.19;4439328;32;20011;-91
2022/05/03 00:35:11;;;;;;;;;;;;;;;14.11;59.97;99547.03;4426672;32;19992;-91
2022/05/03 00:37:36;;;;;;;;;;;;;;;14.32;59.99;99550.34;4426374;32;20270;-91
2022/05/03 00:40:02;;;;;;;;;;;;;;;14.05;59.97;99551.75;4426665;32;19993;-92
2022/05/03 00:42:36;;;;;;;;;;;;;;;14.06;59.97;99551.66;4439609;32;20033;-91
2022/05/03 00:45:07;;;;;;;;;;;;;;;14.07;59.97;99548.12;4439308;32;20044;-92
2022/05/03 00:47:51;;;;;;;;;;;;;;;14.11;59.97;99549.66;4439213;32;19978;-91
2022/05/03 00:50:36;;;;;;;;;;;;;;;14.30;59.98;99544.34;4439389;32;19993;-91
2022/05/03 00:53:19;;;;;;;;;;;;;;;14.20;59.98;99552.75;4439357;32;20070;-91
2022/05/03 00:55:53;;;;;;;;;;;;;;;14.16;59.97;99551.19;4439325;32;20136;-90
2022/05/03 00:58:23;;;;;;;;;;;;;;;14.07;59.97;99550.72;4426382;32;19981;-90
2022/05/03 01:01:05;;;;;;;;;;;;;;;14.01;59.97;99537.13;4440623;32;19974;-89
2022/05/03 01:03:36;;;;;;;;;;;;;;;13.99;59.96;99546.81;4439148;32;20045;-90
2022/05/03 01:06:08;;;;;;;;;;;;;;;14.10;59.98;99541.88;4439230;32;20798;-90
2022/05/03 01:08:41;;;;;;;;;;;;;;;13.87;59.95;99542.16;4439205;32;19973;-89
2022/05/03 01:11:20;;;;;;;;;;;;;;;13.96;59.96;99544.31;4439385;32;19977;-89
2022/05/03 01:14:17;;;;;;;;;;;;;;;13.92;59.96;99545.41;4426288;32;19997;-89
2022/05/03 01:16:46;;;;;;;;;;;;;;;13.71;59.95;99544.66;4421991;32;19992;-90
2022/05/03 01:19:24;;;;;;;;;;;;;;;13.92;59.96;99550.63;4426223;32;19988;-90
2022/05/03 01:21:58;;;;;;;;;;;;;;;13.91;59.96;99549.78;4440219;32;20278;-89
2022/05/03 01:24:31;;;;;;;;;;;;;;;13.75;59.95;99554.09;4438904;32;20000;-89
2022/05/03 01:27:14;;;;;;;;;;;;;;;13.66;59.95;99557.97;4439703;32;19977;-90
2022/05/03 01:29:40;;;;;;;;;;;;;;;13.48;59.93;99556.22;4441409;32;19984;-91
2022/05/03 01:32:06;;;;;;;;;;;;;;;13.51;59.94;99558.72;4428578;32;20368;-89
2022/05/03 01:34:31;;;;;;;;;;;;;;;13.49;59.94;99555.31;4428662;32;21009;-89
2022/05/03 01:37:04;;;;;;;;;;;;;;;13.50;59.94;99551.78;4441170;32;19999;-89
2022/05/03 01:39:37;;;;;;;;;;;;;;;13.75;59.95;99552.31;4441503;32;19969;-90
2022/05/03 01:42:21;;;;;;;;;;;;;;;13.72;59.96;99551.59;4428641;32;20012;-90
2022/05/03 01:44:56;;;;;;;;;;;;;;;13.63;59.95;99552.88;4441297;32;20352;-91
2022/05/03 01:47:25;;;;;;;;;;;;;;;13.71;59.94;99545.50;4441327;32;20005;-92
2022/05/03 01:50:18;;;;;;;;;;;;;;;13.73;59.95;99551.53;4441410;32;19977;-90
2022/05/03 01:55:52;;;;;;;;;;;;;;;13.65;59.95;99551.03;4443615;32;20004;-90
2022/05/03 01:58:36;;;;;;;;;;;;;;;13.62;59.94;99551.19;4441127;32;20373;-91
2022/05/03 02:01:05;;;;;;;;;;;;;;;13.52;59.94;99555.19;4455618;32;19981;-91
2022/05/03 02:03:49;;;;;;;;;;;;;;;13.52;59.94;99556.03;4428767;32;20000;-90
2022/05/03 02:06:15;;;;;;;;;;;;;;;13.46;59.94;99548.44;4441179;32;20397;-90
2022/05/03 02:08:44;;;;;;;;;;;;;;;13.41;59.93;99552.19;4428597;32;20067;-90
2022/05/03 02:11:25;;;;;;;;;;;;;;;13.46;59.93;99556.28;4428576;32;20348;-90
2022/05/03 02:16:41;;;;;;;;;;;;;;;13.67;59.94;99550.97;4455301;32;20004;-90
2022/05/03 02:19:08;;;;;;;;;;;;;;;13.64;59.95;99548.50;4428193;32;20380;-90
2022/05/03 02:21:37;;;;;;;;;;;;;;;13.69;59.94;99547.34;4428241;32;20011;-90
2022/05/03 02:24:03;;;;;;;;;;;;;;;13.60;59.94;99550.41;4428213;32;20046;-89
2022/05/03 02:26:36;;;;;;;;;;;;;;;13.53;59.94;99546.41;4440854;32;19997;-89
2022/05/03 02:29:04;;;;;;;;;;;;;;;13.40;59.93;99550.50;4428033;32;20371;-89
2022/05/03 02:31:31;;;;;;;;;;;;;;;13.48;59.93;99546.59;4440250;32;19973;-92
2022/05/03 02:34:15;;;;;;;;;;;;;;;13.49;59.93;99552.72;4441592;32;19997;-91
2022/05/03 02:36:51;;;;;;;;;;;;;;;13.26;59.92;99555.53;4441512;32;20711;-92
2022/05/03 02:39:16;;;;;;;;;;;;;;;13.45;59.93;99548.50;4428436;32;19976;-92
2022/05/03 02:41:41;;;;;;;;;;;;;;;13.36;59.92;99554.19;4428235;32;20023;-91
2022/05/03 02:44:06;;;;;;;;;;;;;;;13.35;59.92;99557.72;4427800;32;20001;-91
2022/05/03 02:46:38;;;;;;;;;;;;;;;13.28;59.92;99553.72;4427910;32;20364;-91
2022/05/03 02:49:03;;;;;;;;;;;;;;;13.34;59.93;99556.03;4440970;32;19980;-91
2022/05/03 02:51:35;;;;;;;;;;;;;;;13.26;59.92;99547.69;4428311;32;20246;-91
2022/05/03 02:54:05;;;;;;;;;;;;;;;13.17;59.91;99554.16;4428001;32;20021;-92
2022/05/03 02:56:48;;;;;;;;;;;;;;;13.19;59.92;99555.81;4428189;32;20011;-92
2022/05/03 02:59:20;;;;;;;;;;;;;;;13.07;59.91;99561.56;4428003;32;20001;-91
2022/05/03 03:02:11;;;;;;;;;;;;;;;12.80;59.89;99555.81;4440947;32;19991;-92
2022/05/03 03:04:37;;;;;;;;;;;;;;;12.74;59.90;99556.06;4411306;32;20001;-90
2022/05/03 03:07:02;;;;;;;;;;;;;;;12.66;59.89;99558.16;4440641;32;19985;-92
2022/05/03 03:09:30;;;;;;;;;;;;;;;12.75;59.90;99557.75;4428241;32;20257;-91
2022/05/03 03:11:58;;;;;;;;;;;;;;;12.68;59.89;99563.31;4440977;32;20028;-91
2022/05/03 03:14:43;;;;;;;;;;;;;;;12.62;59.89;99561.00;4427637;32;20009;-90
2022/05/03 03:17:09;;;;;;;;;;;;;;;12.64;59.88;99561.75;4454025;32;20040;-91
2022/05/03 03:19:38;;;;;;;;;;;;;;;12.60;59.89;99555.84;4427721;32;19989;-90
2022/05/03 03:22:03;;;;;;;;;;;;;;;12.47;59.88;99559.87;4440134;32;20326;-90
2022/05/03 03:24:29;;;;;;;;;;;;;;;12.57;59.89;99564.66;4427352;32;19985;-90
2022/05/03 03:26:54;;;;;;;;;;;;;;;12.55;59.88;99560.41;4439992;32;20053;-90
2022/05/03 03:29:19;;;;;;;;;;;;;;;12.55;59.88;99553.44;4440591;32;19992;-90
2022/05/03 03:31:45;;;;;;;;;;;;;;;12.69;59.89;99555.41;4441549;32;20022;-91
2022/05/03 03:34:10;;;;;;;;;;;;;;;12.75;59.90;99560.38;4429699;32;20396;-89
2022/05/03 03:36:36;;;;;;;;;;;;;;;12.75;59.90;99564.75;4442699;32;20010;-90
2022/05/03 03:39:01;;;;;;;;;;;;;;;12.56;59.88;99562.94;4429838;32;20384;-90
2022/05/03 03:41:26;;;;;;;;;;;;;;;12.58;59.89;99563.72;4428134;32;21894;-91
2022/05/03 03:43:52;;;;;;;;;;;;;;;12.68;59.89;99561.56;4428288;32;25213;-92
2022/05/03 03:46:17;;;;;;;;;;;;;;;12.52;59.88;99558.75;4429764;32;20054;-91
2022/05/03 03:48:42;;;;;;;;;;;;;;;12.43;59.88;99561.78;4429448;32;19989;-91
2022/05/03 03:51:08;;;;;;;;;;;;;;;12.47;59.87;99563.31;4441422;32;25633;-90
2022/05/03 03:53:34;;;;;;;;;;;;;;;12.42;59.88;99567.91;4442264;32;20035;-89
2022/05/03 03:55:59;;;;;;;;;;;;;;;12.41;59.87;99578.41;4429546;32;19999;-91
2022/05/03 03:58:24;;;;;;;;;;;;;;;12.29;59.87;99575.38;4429527;32;20357;-91
2022/05/03 04:00:49;;;;;;;;;;;;;;;12.34;59.87;99577.84;4428667;32;19988;-89
2022/05/03 04:03:15;;;;;;;;;;;;;;;12.65;59.88;99568.69;4428418;32;24816;-89
2022/05/03 04:05:40;;;;;;;;;;;;;;;12.40;59.87;99576.72;4441915;32;20000;-91
2022/05/03 04:08:06;;;;;;;;;;;;;;;12.56;59.88;99568.19;4428882;32;34682;-92
2022/05/03 04:10:31;;;;;;;;;;;;;;;12.60;59.89;99574.97;4429110;32;20321;-90
2022/05/03 04:12:57;;;;;;;;;;;;;;;12.64;59.88;99578.28;4429173;32;20001;-91
2022/05/03 04:15:23;;;;;;;;;;;;;;;12.68;59.89;99576.38;4429292;32;19993;-92
2022/05/03 04:17:48;;;;;;;;;;;;;;;12.73;59.90;99577.03;4442424;32;19996;-92
2022/05/03 04:20:15;;;;;;;;;;;;;;;12.83;59.89;99578.34;4429608;32;19981;-94
2022/05/03 04:22:40;;;;;;;;;;;;;;;12.85;59.89;99577.34;4457821;32;20000;-94
2022/05/03 04:25:05;;;;;;;;;;;;;;;13.11;59.90;99584.03;4430618;32;19985;-93
2022/05/03 04:27:31;;;;;;;;;;;;;;;13.34;59.93;99574.31;4430149;32;19989;-91
2022/05/03 04:29:59;;;;;;;;;;;;;;;13.25;59.91;99593.91;4430777;32;19981;-91
2022/05/03 04:32:27;;;;;;;;;;;;;;;13.25;59.92;99586.06;4431032;32;20016;-93
2022/05/03 04:34:52;;;;;;;;;;;;;;;13.36;59.92;99575.94;4429836;32;20024;-94
2022/05/03 04:37:17;;;;;;;;;;;;;;;13.56;59.93;99575.03;4430469;32;20322;-92
2022/05/03 04:39:42;;;;;;;;;;;;;;;13.64;59.95;99572.03;4429347;32;33023;-92
2022/05/03 04:42:08;;;;;;;;;;;;;;;13.67;59.94;99574.50;4429901;32;20011;-93
2022/05/03 04:44:33;;;;;;;;;;;;;;;13.95;59.96;99574.03;4442643;32;19977;-91
2022/05/03 04:46:59;;;;;;;;;;;;;;;13.86;59.95;99569.25;4434370;32;19996;-95
2022/05/03 04:49:26;;;;;;;;;;;;;;;14.07;59.96;99574.28;4448363;32;20032;-96
2022/05/03 04:51:51;;;;;;;;;;;;;;;14.29;59.97;99575.84;4447021;32;20008;-96
2022/05/03 04:54:17;;;;;;;;;;;;;;;14.33;59.98;99573.00;4446080;32;19993;-96
2022/05/03 04:56:47;;;;;;;;;;;;;;;14.35;59.98;99571.16;4432567;32;19993;-96
2022/05/03 04:59:12;;;;;;;;;;;;;;;14.58;59.99;99575.25;4432847;32;19978;-95
2022/05/03 05:01:38;;;;;;;;;;;;;;;14.52;59.99;99586.03;4432230;32;19982;-96
2022/05/03 05:04:03;;;;;;;;;;;;;;;14.78;60.00;99586.47;4433162;32;20007;-96
2022/05/03 05:06:29;;;;;;;;;;;;;;;14.84;60.00;99589.63;4434350;32;19973;-96
2022/05/03 05:08:54;;;;;;;;;;;;;;;14.95;60.01;99578.59;4448898;32;19945;-95
2022/05/03 05:11:20;;;;;;;;;;;;;;;15.13;60.02;99585.47;4434261;32;20103;-96
2022/05/03 05:13:46;;;;;;;;;;;;;;;15.31;60.04;99581.03;4446102;32;19989;-96
2022/05/03 05:16:11;;;;;;;;;;;;;;;15.46;60.03;99585.44;4430612;32;20007;-96
2022/05/03 05:18:37;;;;;;;;;;;;;;;15.53;60.04;99583.31;4443460;32;19973;-92
2022/05/03 05:21:02;;;;;;;;;;;;;;;15.73;60.05;99593.59;4430448;32;19993;-94
2022/05/03 05:23:27;;;;;;;;;;;;;;;15.97;60.06;99578.25;4432272;32;19996;-95
2022/05/03 05:25:54;;;;;;;;;;;;;;;16.00;60.06;99577.22;4430763;32;20009;-93
2022/05/03 05:28:19;;;;;;;;;;;;;;;16.15;60.07;99571.97;4430726;32;20003;-95
2022/05/03 05:30:45;;;;;;;;;;;;;;;16.41;60.09;99565.19;4430989;32;19993;-95
2022/05/03 05:33:10;;;;;;;;;;;;;;;16.66;60.10;99569.84;4431442;32;19985;-95
2022/05/03 05:35:35;;;;;;;;;;;;;;;16.98;60.12;99575.78;4430771;32;19981;-96
2022/05/03 05:38:01;;;;;;;;;;;;;;;17.45;60.14;99569.38;4430618;32;19984;-95
2022/05/03 05:40:26;;;;;;;;;;;;;;;17.73;60.16;99566.69;4430698;32;20008;-95
2022/05/03 05:42:51;;;;;;;;;;;;;;;17.85;60.18;99557.19;4430808;32;20013;-94
2022/05/03 05:45:17;;;;;;;;;;;;;;;18.01;60.17;99557.88;4430392;32;19992;-95
2022/05/03 05:47:42;;;;;;;;;;;;;;;17.92;60.17;99566.34;4430586;32;20316;-95
2022/05/03 05:50:08;;;;;;;;;;;;;;;18.14;60.18;99564.94;4430731;32;20016;-95
2022/05/03 05:55:17;;;;;;;;;;;;;;;18.40;60.20;99562.28;4445558;32;20371;-96
2022/05/03 05:57:42;;;;;;;;;;;;;;;18.62;60.21;99566.09;4429915;32;19984;-95
2022/05/03 06:00:08;;;;;;;;;;;;;;;18.77;60.22;99567.72;4442864;32;20016;-94
2022/05/03 06:02:33;;;;;;;;;;;;;;;19.05;60.23;99561.38;4430181;32;20374;-95
2022/05/03 06:04:58;;;;;;;;;;;;;;;19.21;60.23;99562.00;4429400;32;19989;-94
2022/05/03 06:07:24;;;;;;;;;;;;;;;19.36;60.25;99556.56;4441488;32;19973;-94
2022/05/03 06:09:50;;;;;;;;;;;;;;;19.49;60.25;99558.25;4442497;32;20038;-95
2022/05/03 06:12:15;;;;;;;;;;;;;;;19.84;60.27;99555.69;4430053;32;19997;-94
2022/05/03 06:14:41;;;;;;;;;;;;;;;19.95;60.28;99551.44;4433539;32;19993;-94
2022/05/03 06:17:06;;;;;;;;;;;;;;;20.05;60.28;99557.72;4435770;32;19977;-95
2022/05/03 06:19:31;;;;;;;;;;;;;;;20.21;60.29;99548.53;4433857;32;20276;-94
2022/05/03 06:21:56;;;;;;;;;;;;;;;20.24;60.30;99547.47;4432458;32;20030;-96
2022/05/03 06:24:22;;;;;;;;;;;;;;;20.52;60.30;99555.03;4429569;32;20282;-94
2022/05/03 06:26:48;;;;;;;;;;;;;;;20.48;60.31;99556.22;4429353;32;19985;-95
2022/05/03 06:29:14;;;;;;;;;;;;;;;20.69;60.31;99556.41;4429518;32;20017;-94
2022/05/03 06:31:39;;;;;;;;;;;;;;;20.94;60.33;99554.50;4429524;32;19961;-95
2022/05/03 06:34:05;;;;;;;;;;;;;;;21.08;60.33;99555.12;4429276;32;20369;-95
2022/05/03 06:36:30;;;;;;;;;;;;;;;21.16;60.33;99559.78;4429030;32;19977;-95
2022/05/03 06:38:56;;;;;;;;;;;;;;;21.26;60.35;99555.47;4429254;32;19997;-94
2022/05/03 06:41:24;;;;;;;;;;;;;;;21.39;60.35;99563.31;4429479;32;20038;-95
2022/05/03 06:43:49;;;;;;;;;;;;;;;21.57;60.37;99561.84;4429215;32;19991;-96
2022/05/03 06:46:14;;;;;;;;;;;;;;;21.82;60.37;99557.19;4429316;32;19981;-94
2022/05/03 06:48:39;;;;;;;;;;;;;;;22.08;60.39;99557.75;4429157;32;19997;-95
2022/05/03 06:51:05;;;;;;;;;;;;;;;21.95;60.39;99552.56;4429350;32;19993;-95
2022/05/03 06:53:31;;;;;;;;;;;;;;;22.01;60.38;99549.44;4429224;32;20764;-94
2022/05/03 06:55:56;;;;;;;;;;;;;;;22.22;60.40;99552.13;4429139;32;19965;-96
2022/05/03 06:58:21;;;;;;;;;;;;;;;22.52;60.41;99554.03;4428946;32;19993;-94
2022/05/03 07:00:47;;;;;;;;;;;;;;;22.64;60.43;99553.81;4428952;32;19985;-94
2022/05/03 07:03:12;;;;;;;;;;;;;;;22.73;60.43;99552.22;4429541;32;20039;-96
2022/05/03 07:05:38;;;;;;;;;;;;;;;22.90;60.43;99548.97;4429120;32;19985;-95
2022/05/03 07:08:03;;;;;;;;;;;;;;;22.76;60.42;99549.28;4428985;32;20042;-95
2022/05/03 07:10:28;;;;;;;;;;;;;;;22.84;60.43;99553.97;4429032;32;20009;-94
2022/05/03 07:12:54;;;;;;;;;;;;;;;22.92;60.44;99560.28;4428909;32;20239;-95
2022/05/03 07:15:19;;;;;;;;;;;;;;;22.89;60.43;99551.75;4428769;32;20074;-95
2022/05/03 07:23:15;;;;;;;;;;;;;;;23.03;60.44;99563.84;4446021;32;20355;-95
2022/05/03 07:25:40;;;;;;;;;;;;;;;23.10;60.44;99555.22;4430689;32;20001;-95
2022/05/03 07:28:06;;;;;;;;;;;;;;;23.09;60.44;99558.00;4427910;32;20004;-94
2022/05/03 07:30:31;;;;;;;;;;;;;;;23.06;60.45;99556.44;4428196;32;19993;-95
2022/05/03 07:32:56;;;;;;;;;;;;;;;23.17;60.45;99558.16;4428003;32;20250;-95
2022/05/03 07:35:21;;;;;;;;;;;;;;;23.22;60.45;99550.66;4427974;32;20000;-94
2022/05/03 07:37:46;;;;;;;;;;;;;;;23.19;60.45;99562.38;4440898;32;19985;-95
2022/05/03 07:40:12;;;;;;;;;;;;;;;23.33;60.45;99553.19;4428226;32;19981;-94
2022/05/03 07:42:37;;;;;;;;;;;;;;;23.58;60.47;99559.87;4428307;32;20000;-95
2022/05/03 07:45:02;;;;;;;;;;;;;;;23.80;60.48;99556.12;4428370;32;20321;-95
2022/05/03 07:47:28;;;;;;;;;;;;;;;23.83;60.49;99561.16;4428266;32;19993;-95
2022/05/03 07:49:53;;;;;;;;;;;;;;;23.85;60.48;99548.56;4440875;32;19985;-95
2022/05/03 07:52:18;;;;;;;;;;;;;;;23.85;60.48;99552.06;4427929;32;20019;-95
2022/05/03 07:54:46;;;;;;;;;;;;;;;23.88;60.50;99558.94;4428277;32;19977;-96
2022/05/03 07:57:12;;;;;;;;;;;;;;;23.82;60.49;99559.50;4429617;32;20001;-96
2022/05/03 07:59:37;;;;;;;;;;;;;;;23.65;60.47;99554.84;4428146;32;19985;-95
2022/05/03 08:02:03;;;;;;;;;;;;;;;23.56;60.47;99554.69;4428069;32;20356;-96
2022/05/03 08:04:28;;;;;;;;;;;;;;;23.71;60.47;99554.31;4428140;32;19989;-96
2022/05/03 08:06:54;;;;;;;;;;;;;;;23.88;60.50;99553.63;4427867;32;20251;-96
2022/05/03 08:09:19;;;;;;;;;;;;;;;24.02;60.50;99550.56;4428308;32;20055;-94
2022/05/03 08:11:44;;;;;;;;;;;;;;;23.87;60.50;99552.78;4427807;32;20027;-95
2022/05/03 08:14:12;;;;;;;;;;;;;;;23.78;60.48;99558.09;4427860;32;19967;-96
2022/05/03 08:16:38;;;;;;;;;;;;;;;24.04;60.50;99551.25;4428364;32;19989;-94
2022/05/03 08:19:03;;;;;;;;;;;;;;;24.01;60.50;99558.69;4428022;32;20008;-95
2022/05/03 08:21:35;;;;;;;;;;;;;;;23.95;60.49;99556.59;4427920;32;20026;-95
2022/05/03 08:24:01;;;;;;;;;;;;;;;24.11;60.51;99552.37;4428519;32;19961;-94
2022/05/03 08:26:26;;;;;;;;;;;;;;;24.21;60.51;99557.69;4427983;32;19989;-95
2022/05/03 08:28:52;;;;;;;;;;;;;;;24.23;60.51;99557.56;4426926;32;19999;-95
2022/05/03 08:31:17;;;;;;;;;;;;;;;24.28;60.52;99553.53;4427839;32;20003;-96
2022/05/03 08:33:44;;;;;;;;;;;;;;;24.16;60.50;99555.47;4427747;32;19977;-95
2022/05/03 08:36:09;;;;;;;;;;;;;;;24.36;60.52;99552.81;4427722;32;19989;-94
2022/05/03 08:44:03;;;;;;;;;;;;;;;24.68;60.53;99549.84;4440294;32;20075;-94
2022/05/03 08:46:29;;;;;;;;;;;;;;;24.80;60.54;99554.81;4427202;32;19985;-94
2022/05/03 08:49:02;;;;;;;;;;;;;;;24.84;60.55;99546.53;4440207;32;20009;-93
2022/05/03 08:51:29;;;;;;;;;;;;;;;25.18;60.56;99547.72;4428410;32;19990;-92
2022/05/03 08:53:58;;;;;;;;;;;;;;;25.49;60.58;99540.25;4432088;32;20013;-94
2022/05/03 08:56:23;;;;;;;;;;;;;;;25.76;60.60;99542.09;4430595;32;20004;-94
2022/05/03 08:58:48;;;;;;;;;;;;;;;25.63;60.58;99534.44;4440456;32;19985;-94
2022/05/03 09:01:14;;;;;;;;;;;;;;;25.75;60.59;99537.75;4426823;32;20027;-94
2022/05/03 09:03:39;;;;;;;;;;;;;;;25.96;60.60;99538.28;4439578;32;20070;-93
2022/05/03 09:06:04;;;;;;;;;;;;;;;25.86;60.60;99539.38;4426731;32;20026;-93
2022/05/03 09:08:31;;;;;;;;;;;;;;;26.11;60.61;99541.28;4426859;32;20039;-93
2022/05/03 09:10:56;;;;;;;;;;;;;;;26.47;60.63;99539.41;4426797;32;19953;-94
2022/05/03 09:13:23;;;;;;;;;;;;;;;26.55;60.63;99535.97;4426985;32;20010;-95
2022/05/03 09:15:51;;;;;;;;;;;;;;;26.64;60.64;99536.87;4426686;32;20011;-94
2022/05/03 09:18:19;;;;;;;;;;;;;;;26.62;60.64;99537.88;4427288;32;19962;-93
2022/05/03 09:23:50;;;;;;;;;;;;;;;26.23;60.62;99525.84;4439915;32;20019;-95
2022/05/03 09:26:22;;;;;;;;;;;;;;;26.62;60.64;99527.19;4428557;32;20017;-93
2022/05/03 09:28:52;;;;;;;;;;;;;;;26.69;60.64;99524.72;4426668;32;19997;-94
2022/05/03 09:31:28;;;;;;;;;;;;;;;26.90;60.65;99527.00;4426721;32;20360;-94
2022/05/03 09:33:53;;;;;;;;;;;;;;;26.67;60.64;99523.19;4426535;32;20025;-94
2022/05/03 09:36:18;;;;;;;;;;;;;;;27.05;60.66;99517.44;4427060;32;20008;-93
2022/05/03 09:38:45;;;;;;;;;;;;;;;27.51;60.68;99520.63;4426956;32;20270;-94
2022/05/03 09:41:11;;;;;;;;;;;;;;;27.75;60.70;99525.22;4425556;32;19954;-95
2022/05/03 09:43:36;;;;;;;;;;;;;;;27.79;60.71;99514.03;4426362;32;19989;-94
2022/05/03 09:46:07;;;;;;;;;;;;;;;27.84;60.70;99513.53;4426392;32;19993;-94
2022/05/03 09:48:52;;;;;;;;;;;;;;;27.76;60.69;99508.16;4426831;32;20032;-94
2022/05/03 09:51:17;;;;;;;;;;;;;;;28.00;60.71;99516.22;4426585;32;19992;-94
2022/05/03 09:53:42;;;;;;;;;;;;;;;27.93;60.71;99514.38;4426410;32;20061;-95
2022/05/03 09:56:09;;;;;;;;;;;;;;;28.10;60.71;99498.16;4426315;32;19998;-95
2022/05/03 09:58:35;;;;;;;;;;;;;;;28.01;60.70;99501.84;4426590;32;20038;-95
2022/05/03 10:01:00;;;;;;;;;;;;;;;28.12;60.71;99495.31;4426873;32;19981;-95
2022/05/03 10:03:25;;;;;;;;;;;;;;;28.48;60.73;99500.34;4426741;32;19985;-94
2022/05/03 10:05:50;;;;;;;;;;;;;;;28.41;60.73;99487.62;4426123;32;19986;-95
2022/05/03 10:08:17;;;;;;;;;;;;;;;28.50;60.74;99488.44;4439485;32;19993;-95
2022/05/03 10:10:43;;;;;;;;;;;;;;;28.73;60.75;99486.72;4439344;32;20345;-96
2022/05/03 10:13:11;;;;;;;;;;;;;;;28.76;60.75;99482.84;4426440;32;19992;-93
2022/05/03 10:21:10;;;;;;;;;;;;;;;28.17;60.72;99489.47;4439186;32;20360;-93
2022/05/03 10:23:36;;;;;;;;;;;;;;;27.94;60.70;99483.94;4425985;32;19993;-93
2022/05/03 10:26:03;;;;;;;;;;;;;;;27.81;60.71;99489.78;4426027;32;19998;-94
2022/05/03 10:28:47;;;;;;;;;;;;;;;27.38;60.68;99489.00;4426163;32;20002;-93
2022/05/03 10:31:13;;;;;;;;;;;;;;;27.64;60.70;99483.56;4439038;32;19994;-94
2022/05/03 10:33:38;;;;;;;;;;;;;;;27.49;60.69;99487.88;4426309;32;19984;-94
2022/05/03 10:36:23;;;;;;;;;;;;;;;27.53;60.69;99482.03;4425996;32;20005;-94
2022/05/03 10:38:49;;;;;;;;;;;;;;;27.45;60.69;99482.00;4438816;32;19989;-95
2022/05/03 10:41:22;;;;;;;;;;;;;;;27.45;60.68;99489.19;4438961;32;20005;-94
2022/05/03 10:43:47;;;;;;;;;;;;;;;27.25;60.67;99496.66;4426526;32;19949;-96
2022/05/03 10:46:13;;;;;;;;;;;;;;;26.85;60.66;99498.09;4426282;32;20074;-94
2022/05/03 10:48:41;;;;;;;;;;;;;;;26.27;60.62;99493.38;4426489;32;20000;-95
2022/05/03 10:51:07;;;;;;;;;;;;;;;26.00;60.62;99493.47;4426890;32;19991;-94
2022/05/03 10:53:33;;;;;;;;;;;;;;;25.86;60.61;99500.22;4425681;32;19977;-96
2022/05/03 10:56:03;;;;;;;;;;;;;;;25.31;60.58;99502.06;4426598;32;20001;-94
2022/05/03 10:58:29;;;;;;;;;;;;;;;24.39;60.53;99509.97;4426424;32;19980;-95
2022/05/03 11:01:07;;;;;;;;;;;;;;;23.96;60.51;99521.87;4426354;32;20349;-93
2022/05/03 11:03:33;;;;;;;;;;;;;;;23.67;60.49;99519.22;4439277;32;20620;-95
2022/05/03 11:06:23;;;;;;;;;;;;;;;22.97;60.46;99528.06;4426151;32;20039;-93
2022/05/03 11:11:44;;;;;;;;;;;;;;;21.96;60.41;99535.69;4440417;32;20052;-94
2022/05/03 11:14:22;;;;;;;;;;;;;;;21.24;60.37;99530.94;4438626;32;19978;-93
2022/05/03 11:16:47;;;;;;;;;;;;;;;20.62;60.34;99534.03;4438731;32;20019;-94
2022/05/03 11:19:20;;;;;;;;;;;;;;;20.14;60.30;99538.56;4426143;32;20369;-93
2022/05/03 11:21:45;;;;;;;;;;;;;;;19.79;60.29;99526.16;4430101;32;19978;-93
2022/05/03 11:24:21;;;;;;;;;;;;;;;19.40;60.27;99529.00;4430981;32;19977;-93
2022/05/03 11:26:53;;;;;;;;;;;;;;;19.35;60.27;99553.09;4425907;32;19997;-93
2022/05/03 11:29:18;;;;;;;;;;;;;;;19.40;60.27;99529.88;4426419;32;19968;-94
2022/05/03 11:31:50;;;;;;;;;;;;;;;19.65;60.28;99523.69;4428342;32;19993;-95
2022/05/03 11:34:17;;;;;;;;;;;;;;;19.77;60.29;99516.66;4428819;32;19986;-93
2022/05/03 11:36:42;;;;;;;;;;;;;;;19.86;60.30;99515.97;4426849;32;19985;-94
2022/05/03 11:39:09;;;;;;;;;;;;;;;19.75;60.28;99524.69;4426569;32;20008;-94
2022/05/03 11:41:35;;;;;;;;;;;;;;;19.87;60.29;99530.84;4426305;32;20001;-94
2022/05/03 11:44:00;;;;;;;;;;;;;;;19.98;60.30;99532.72;4425843;32;19981;-94
2022/05/03 11:46:26;;;;;;;;;;;;;;;20.11;60.31;99525.56;4438655;32;20001;-93
2022/05/03 11:49:02;;;;;;;;;;;;;;;20.06;60.30;99515.31;4425554;32;19993;-95
2022/05/03 11:57:10;;;;;;;;;;;;;;;20.58;60.33;99500.81;4439623;32;20360;-94
2022/05/03 11:59:35;;;;;;;;;;;;;;;20.87;60.35;99487.16;4425505;32;20001;-94
2022/05/03 12:02:13;;;;;;;;;;;;;;;21.29;60.37;99478.44;4425290;32;19977;-94
2022/05/03 12:04:38;;;;;;;;;;;;;;;21.67;60.38;99475.34;4438877;32;20012;-94
2022/05/03 12:07:04;;;;;;;;;;;;;;;22.07;60.41;99469.44;4427335;32;19981;-94
2022/05/03 12:09:34;;;;;;;;;;;;;;;22.42;60.43;99468.25;4427262;32;20384;-94
2022/05/03 12:14:43;;;;;;;;;;;;;;;23.04;60.46;99459.34;4440441;32;19992;-94
2022/05/03 12:17:09;;;;;;;;;;;;;;;23.42;60.48;99459.44;4427309;32;20001;-95
2022/05/03 12:19:35;;;;;;;;;;;;;;;23.74;60.50;99466.31;4427327;32;19989;-94
2022/05/03 12:22:08;;;;;;;;;;;;;;;24.02;60.51;99460.16;4427604;32;20048;-95
2022/05/03 12:24:33;;;;;;;;;;;;;;;24.25;60.52;99454.53;4427782;32;19985;-94
2022/05/03 12:27:08;;;;;;;;;;;;;;;24.24;60.52;99455.50;4427215;32;20056;-96
2022/05/03 12:29:34;;;;;;;;;;;;;;;24.46;60.53;99452.53;4427331;32;20034;-94
2022/05/03 12:31:59;;;;;;;;;;;;;;;24.51;60.54;99452.94;4427269;32;20288;-95
2022/05/03 12:34:25;;;;;;;;;;;;;;;24.55;60.53;99449.00;4427456;32;20306;-94
2022/05/03 12:36:56;;;;;;;;;;;;;;;24.59;60.54;99445.06;4426948;32;20277;-94
2022/05/03 12:39:21;;;;;;;;;;;;;;;24.59;60.54;99453.03;4427233;32;20034;-94
2022/05/03 12:41:57;;;;;;;;;;;;;;;24.60;60.55;99445.91;4427230;32;19982;-94
2022/05/03 12:44:23;;;;;;;;;;;;;;;24.72;60.54;99447.41;4427449;32;20693;-95
2022/05/03 12:46:48;;;;;;;;;;;;;;;24.68;60.55;99446.88;4426926;32;19989;-95
2022/05/03 12:49:14;;;;;;;;;;;;;;;24.71;60.54;99445.72;4426946;32;20005;-94
2022/05/03 12:51:43;;;;;;;;;;;;;;;24.76;60.55;99446.13;4427071;32;19989;-95
2022/05/03 12:54:08;;;;;;;;;;;;;;;24.31;60.52;99441.50;4440180;32;20369;-93
2022/05/03 12:59:18;;;;;;;;;;;;;;;24.46;60.53;99440.06;4439785;32;20003;-95
2022/05/03 13:01:45;;;;;;;;;;;;;;;24.42;60.54;99438.69;4427056;32;19981;-94
2022/05/03 13:04:12;;;;;;;;;;;;;;;24.62;60.54;99431.50;4427266;32;20030;-96
2022/05/03 13:06:37;;;;;;;;;;;;;;;24.75;60.55;99429.31;4427447;32;19997;-94
2022/05/03 13:09:03;;;;;;;;;;;;;;;24.98;60.55;99426.25;4427216;32;20021;-95
2022/05/03 13:11:29;;;;;;;;;;;;;;;25.09;60.56;99431.44;4427237;32;19973;-94
2022/05/03 13:13:54;;;;;;;;;;;;;;;25.16;60.57;99421.00;4427141;32;19984;-95
2022/05/03 13:16:19;;;;;;;;;;;;;;;25.21;60.58;99418.72;4426848;32;20018;-95
2022/05/03 13:18:45;;;;;;;;;;;;;;;25.40;60.58;99419.44;4427374;32;20362;-94
2022/05/03 13:21:10;;;;;;;;;;;;;;;25.45;60.59;99432.31;4427288;32;19996;-94
2022/05/03 13:23:35;;;;;;;;;;;;;;;25.38;60.58;99434.75;4426845;32;20016;-94
2022/05/03 13:26:01;;;;;;;;;;;;;;;25.39;60.58;99435.56;4426818;32;19994;-94
2022/05/03 13:28:28;;;;;;;;;;;;;;;25.26;60.58;99432.44;4426663;32;19985;-94
2022/05/03 13:30:53;;;;;;;;;;;;;;;25.19;60.56;99426.03;4426904;32;20000;-94
2022/05/03 13:33:19;;;;;;;;;;;;;;;25.33;60.58;99429.03;4426722;32;19989;-94